Dauphin Airport, Manitoba

Past 24 Hour Conditions

This table is a summary of hourly weather conditions for the past 24 hours. This summary includes the following parameters: temperature, humidity, dew point, wind speed and direction, air pressure, visibility and/or wind chill and humidex.
Date / Time
(CDT)
Conditions Temp (°F) Humidity (%) Dew Point (°F) Wind (mph) Pressure (inches) Vis (mi) Humidex
29 July 2014
23:00 Clear 60 87 56 SW 3 30.1 10 *
22:00 Clear 65 78 58 SSW 2 30.1 10 *
21:00 Sunny 71 61 57 SE 3 30.1 10 77
20:00 Sunny 74 60 59 ESE 5 30.1 10 81
19:00 Sunny 77 50 57 E 7 30.1 10 83
18:00 Sunny 78   47 57 SE 6 30.2 10 84
17:00 Sunny 78   43 55 SE 2 30.2 10 83
16:00 Sunny 77 43 53 SW 6 30.2 10 81
15:00 Mainly Sunny 77 38 50 NW 3 30.2 10 79
14:00 Sunny 77 43 53 NNW 7 30.2 10 80
13:00 Sunny 75 50 56 NNW 9 30.2 10 80
12:00 Sunny 74 54 57 NNW 7 30.2 10 80
11:00 Sunny 72 58 57 NNW 6 30.2 10 78
10:00 Sunny 69 67 58 WSW 5 30.2 10 *
9:00 Sunny 65 71 55 W 9 30.2 10 *
8:00 Sunny 60 82 54 WSW 8 30.2 10 *
7:00 Sunny 54 90 51 WSW 9 30.2 10 *
6:00 Clear 51   93 50 WSW 6 30.2 10 *
5:00 Clear 52 91 50 WSW 5 30.2 10 *
4:00 Clear 52 93 50 WSW 8 30.2 10 *
3:00 Clear 53 90 50 WSW 8 30.2 10 *
2:00 Clear 55 86 51 WSW 9 30.2 10 *
1:00 Clear 56 88 52 WSW 7 30.2 10 *
00:00 Clear 56 88 52 WSW 6 30.2 10 *
28 July 2014
23:00 Clear 58 87 54 S 6 30.2 10 *
N/A
Not available
 ↑ 
Highest temperature
 ↓ 
Lowest temperature
*
Value not significant.

If you require additional historical weather information, please visit Climate Data Online.